sensor_id;sensor_type;location;lat;lon;timestamp;pressure;altitude;pressure_sealevel;temperature
20730;BMP280;10526;50.850;12.928;2022-11-15T00:02:27;97845.03;;;7.37
20730;BMP280;10526;50.850;12.928;2022-11-15T00:07:08;97848.44;;;7.30
20730;BMP280;10526;50.850;12.928;2022-11-15T00:12:06;97846.84;;;7.15
20730;BMP280;10526;50.850;12.928;2022-11-15T00:16:46;97846.00;;;7.00
20730;BMP280;10526;50.850;12.928;2022-11-15T00:21:27;97842.53;;;6.85
20730;BMP280;10526;50.850;12.928;2022-11-15T00:26:12;97836.84;;;6.83
20730;BMP280;10526;50.850;12.928;2022-11-15T00:30:53;97831.53;;;6.80
20730;BMP280;10526;50.850;12.928;2022-11-15T00:35:35;97838.28;;;6.70
20730;BMP280;10526;50.850;12.928;2022-11-15T00:40:15;97838.59;;;6.58
20730;BMP280;10526;50.850;12.928;2022-11-15T00:44:56;97847.22;;;6.51
20730;BMP280;10526;50.850;12.928;2022-11-15T00:49:37;97837.75;;;6.50
20730;BMP280;10526;50.850;12.928;2022-11-15T00:54:18;97824.91;;;6.52
20730;BMP280;10526;50.850;12.928;2022-11-15T00:58:59;97831.38;;;6.55
20730;BMP280;10526;50.850;12.928;2022-11-15T01:03:40;97828.34;;;6.53
20730;BMP280;10526;50.850;12.928;2022-11-15T01:08:21;97826.81;;;6.52
20730;BMP280;10526;50.850;12.928;2022-11-15T01:13:02;97817.38;;;6.54
20730;BMP280;10526;50.850;12.928;2022-11-15T01:17:43;97804.91;;;6.55
20730;BMP280;10526;50.850;12.928;2022-11-15T01:22:23;97802.63;;;6.50
20730;BMP280;10526;50.850;12.928;2022-11-15T01:27:04;97803.22;;;6.29
20730;BMP280;10526;50.850;12.928;2022-11-15T01:31:45;97797.38;;;6.09
20730;BMP280;10526;50.850;12.928;2022-11-15T01:36:25;97788.34;;;6.10
20730;BMP280;10526;50.850;12.928;2022-11-15T01:41:11;97782.69;;;6.12
20730;BMP280;10526;50.850;12.928;2022-11-15T01:50:56;97771.81;;;5.79
20730;BMP280;10526;50.850;12.928;2022-11-15T01:55:37;97770.97;;;5.68
20730;BMP280;10526;50.850;12.928;2022-11-15T02:00:18;97765.88;;;5.49
20730;BMP280;10526;50.850;12.928;2022-11-15T02:04:59;97766.00;;;5.26
20730;BMP280;10526;50.850;12.928;2022-11-15T02:09:40;97770.44;;;5.18
20730;BMP280;10526;50.850;12.928;2022-11-15T02:14:21;97764.56;;;5.28
20730;BMP280;10526;50.850;12.928;2022-11-15T02:19:37;97763.16;;;5.38
20730;BMP280;10526;50.850;12.928;2022-11-15T02:24:50;97760.47;;;5.35
20730;BMP280;10526;50.850;12.928;2022-11-15T02:30:15;97753.13;;;5.21
20730;BMP280;10526;50.850;12.928;2022-11-15T02:40:10;97747.47;;;5.19
20730;BMP280;10526;50.850;12.928;2022-11-15T02:44:53;97728.88;;;5.08
20730;BMP280;10526;50.850;12.928;2022-11-15T02:49:36;97731.16;;;5.13
20730;BMP280;10526;50.850;12.928;2022-11-15T02:54:23;97729.00;;;5.19
20730;BMP280;10526;50.850;12.928;2022-11-15T03:09:39;97729.59;;;5.05
20730;BMP280;10526;50.850;12.928;2022-11-15T03:14:29;97717.16;;;5.06
20730;BMP280;10526;50.850;12.928;2022-11-15T03:19:29;97707.41;;;5.13
20730;BMP280;10526;50.850;12.928;2022-11-15T03:24:14;97716.13;;;5.17
20730;BMP280;10526;50.850;12.928;2022-11-15T03:29:17;97705.25;;;5.19
20730;BMP280;10526;50.850;12.928;2022-11-15T03:34:00;97704.78;;;5.13
20730;BMP280;10526;50.850;12.928;2022-11-15T03:38:45;97707.66;;;5.01
20730;BMP280;10526;50.850;12.928;2022-11-15T03:43:47;97703.84;;;4.95
20730;BMP280;10526;50.850;12.928;2022-11-15T03:48:37;97702.72;;;4.96
20730;BMP280;10526;50.850;12.928;2022-11-15T03:53:20;97703.84;;;4.95
20730;BMP280;10526;50.850;12.928;2022-11-15T03:58:01;97704.66;;;5.02
20730;BMP280;10526;50.850;12.928;2022-11-15T04:02:42;97705.13;;;5.08
20730;BMP280;10526;50.850;12.928;2022-11-15T04:07:22;97708.16;;;5.10
20730;BMP280;10526;50.850;12.928;2022-11-15T04:12:04;97712.34;;;5.11
20730;BMP280;10526;50.850;12.928;2022-11-15T04:16:44;97707.75;;;5.08
20730;BMP280;10526;50.850;12.928;2022-11-15T04:21:25;97708.09;;;5.07
20730;BMP280;10526;50.850;12.928;2022-11-15T04:26:25;97701.25;;;5.02
20730;BMP280;10526;50.850;12.928;2022-11-15T04:31:05;97702.44;;;5.04
20730;BMP280;10526;50.850;12.928;2022-11-15T04:35:46;97704.00;;;5.13
20730;BMP280;10526;50.850;12.928;2022-11-15T04:40:47;97696.56;;;5.22
20730;BMP280;10526;50.850;12.928;2022-11-15T04:45:28;97699.09;;;5.45
20730;BMP280;10526;50.850;12.928;2022-11-15T04:50:08;97692.56;;;5.72
20730;BMP280;10526;50.850;12.928;2022-11-15T04:54:49;97681.31;;;5.86
20730;BMP280;10526;50.850;12.928;2022-11-15T04:59:30;97685.56;;;6.01
20730;BMP280;10526;50.850;12.928;2022-11-15T05:04:11;97681.94;;;6.24
20730;BMP280;10526;50.850;12.928;2022-11-15T05:09:01;97680.88;;;6.39
20730;BMP280;10526;50.850;12.928;2022-11-15T05:13:42;97677.53;;;6.46
20730;BMP280;10526;50.850;12.928;2022-11-15T05:18:23;97673.00;;;6.46
20730;BMP280;10526;50.850;12.928;2022-11-15T05:23:05;97673.34;;;6.45
20730;BMP280;10526;50.850;12.928;2022-11-15T05:27:45;97667.69;;;6.43
20730;BMP280;10526;50.850;12.928;2022-11-15T05:32:26;97668.03;;;6.38
20730;BMP280;10526;50.850;12.928;2022-11-15T05:37:07;97658.22;;;6.38
20730;BMP280;10526;50.850;12.928;2022-11-15T05:41:56;97660.09;;;6.34
20730;BMP280;10526;50.850;12.928;2022-11-15T05:46:39;97655.16;;;6.32
20730;BMP280;10526;50.850;12.928;2022-11-15T05:51:21;97653.63;;;6.28
20730;BMP280;10526;50.850;12.928;2022-11-15T05:56:04;97656.22;;;6.21
20730;BMP280;10526;50.850;12.928;2022-11-15T06:00:47;97654.31;;;6.14
20730;BMP280;10526;50.850;12.928;2022-11-15T06:05:27;97655.78;;;6.08
20730;BMP280;10526;50.850;12.928;2022-11-15T06:10:08;97644.78;;;6.02
20730;BMP280;10526;50.850;12.928;2022-11-15T06:14:49;97637.59;;;5.96
20730;BMP280;10526;50.850;12.928;2022-11-15T06:19:30;97653.47;;;6.03
20730;BMP280;10526;50.850;12.928;2022-11-15T06:24:13;97645.97;;;6.05
20730;BMP280;10526;50.850;12.928;2022-11-15T06:28:54;97645.56;;;6.03
20730;BMP280;10526;50.850;12.928;2022-11-15T06:33:35;97656.09;;;5.96
20730;BMP280;10526;50.850;12.928;2022-11-15T06:38:16;97658.72;;;5.96
20730;BMP280;10526;50.850;12.928;2022-11-15T06:42:58;97658.72;;;5.96
20730;BMP280;10526;50.850;12.928;2022-11-15T06:47:48;97661.81;;;6.05
20730;BMP280;10526;50.850;12.928;2022-11-15T06:52:29;97664.88;;;6.14
20730;BMP280;10526;50.850;12.928;2022-11-15T06:57:13;97674.41;;;6.29
20730;BMP280;10526;50.850;12.928;2022-11-15T07:01:53;97668.50;;;6.54
20730;BMP280;10526;50.850;12.928;2022-11-15T07:06:34;97663.31;;;6.82
20730;BMP280;10526;50.850;12.928;2022-11-15T07:11:15;97667.56;;;7.73
20730;BMP280;10526;50.850;12.928;2022-11-15T07:15:55;97669.72;;;9.98
20730;BMP280;10526;50.850;12.928;2022-11-15T07:20:36;97665.59;;;12.02
20730;BMP280;10526;50.850;12.928;2022-11-15T07:25:16;97676.75;;;13.80
20730;BMP280;10526;50.850;12.928;2022-11-15T07:29:57;97681.75;;;15.77
20730;BMP280;10526;50.850;12.928;2022-11-15T07:34:38;97683.47;;;17.50
20730;BMP280;10526;50.850;12.928;2022-11-15T07:39:18;97686.31;;;18.49
20730;BMP280;10526;50.850;12.928;2022-11-15T07:43:59;97692.84;;;19.88
20730;BMP280;10526;50.850;12.928;2022-11-15T07:48:40;97693.94;;;20.87
20730;BMP280;10526;50.850;12.928;2022-11-15T07:53:24;97691.91;;;22.17
20730;BMP280;10526;50.850;12.928;2022-11-15T07:58:08;97693.78;;;23.80
20730;BMP280;10526;50.850;12.928;2022-11-15T08:02:49;97694.84;;;24.98
20730;BMP280;10526;50.850;12.928;2022-11-15T08:07:31;97702.28;;;25.87
20730;BMP280;10526;50.850;12.928;2022-11-15T08:12:12;97701.59;;;26.68
20730;BMP280;10526;50.850;12.928;2022-11-15T08:16:53;97702.22;;;27.11
20730;BMP280;10526;50.850;12.928;2022-11-15T08:21:34;97693.94;;;27.17
20730;BMP280;10526;50.850;12.928;2022-11-15T08:26:16;97695.16;;;27.48
20730;BMP280;10526;50.850;12.928;2022-11-15T08:30:56;97701.69;;;28.11
20730;BMP280;10526;50.850;12.928;2022-11-15T08:35:37;97690.94;;;28.39
20730;BMP280;10526;50.850;12.928;2022-11-15T08:40:18;97687.25;;;28.10
20730;BMP280;10526;50.850;12.928;2022-11-15T08:44:59;97687.84;;;26.92
20730;BMP280;10526;50.850;12.928;2022-11-15T08:49:40;97684.66;;;25.04
20730;BMP280;10526;50.850;12.928;2022-11-15T08:54:21;97673.47;;;25.08
20730;BMP280;10526;50.850;12.928;2022-11-15T08:59:01;97664.03;;;25.14
20730;BMP280;10526;50.850;12.928;2022-11-15T09:03:42;97661.97;;;25.50
20730;BMP280;10526;50.850;12.928;2022-11-15T09:08:24;97662.41;;;25.60
20730;BMP280;10526;50.850;12.928;2022-11-15T09:13:25;97662.22;;;26.76
20730;BMP280;10526;50.850;12.928;2022-11-15T09:18:05;97664.00;;;26.74
20730;BMP280;10526;50.850;12.928;2022-11-15T09:22:46;97657.06;;;26.54
20730;BMP280;10526;50.850;12.928;2022-11-15T09:27:30;97655.66;;;26.28
20730;BMP280;10526;50.850;12.928;2022-11-15T09:32:11;97649.41;;;26.52
20730;BMP280;10526;50.850;12.928;2022-11-15T09:36:52;97643.81;;;27.09
20730;BMP280;10526;50.850;12.928;2022-11-15T09:51:50;97637.78;;;25.41
20730;BMP280;10526;50.850;12.928;2022-11-15T09:56:32;97623.19;;;24.21
20730;BMP280;10526;50.850;12.928;2022-11-15T10:00:58;97619.38;;;24.41
20730;BMP280;10526;50.850;12.928;2022-11-15T10:05:23;97606.34;;;24.28
20730;BMP280;10526;50.850;12.928;2022-11-15T10:10:27;97599.28;;;24.03
20730;BMP280;10526;50.850;12.928;2022-11-15T10:15:04;97605.09;;;24.76
20730;BMP280;10526;50.850;12.928;2022-11-15T10:19:56;97600.59;;;24.84
20730;BMP280;10526;50.850;12.928;2022-11-15T10:24:28;97595.25;;;24.20
20730;BMP280;10526;50.850;12.928;2022-11-15T10:28:54;97587.19;;;24.45
20730;BMP280;10526;50.850;12.928;2022-11-15T10:33:35;97589.63;;;25.44
20730;BMP280;10526;50.850;12.928;2022-11-15T10:38:06;97578.13;;;25.56
20730;BMP280;10526;50.850;12.928;2022-11-15T10:42:29;97564.09;;;26.27
20730;BMP280;10526;50.850;12.928;2022-11-15T10:51:27;97561.81;;;25.51
20730;BMP280;10526;50.850;12.928;2022-11-15T10:55:55;97550.25;;;26.07
20730;BMP280;10526;50.850;12.928;2022-11-15T11:04:50;97536.34;;;26.05
20730;BMP280;10526;50.850;12.928;2022-11-15T11:09:33;97539.38;;;26.71
20730;BMP280;10526;50.850;12.928;2022-11-15T11:14:12;97525.97;;;27.12
20730;BMP280;10526;50.850;12.928;2022-11-15T11:23:53;97533.06;;;26.89
20730;BMP280;10526;50.850;12.928;2022-11-15T11:33:32;97510.88;;;24.91
20730;BMP280;10526;50.850;12.928;2022-11-15T11:47:44;97484.78;;;22.31
20730;BMP280;10526;50.850;12.928;2022-11-15T11:56:39;97468.06;;;19.05
20730;BMP280;10526;50.850;12.928;2022-11-15T12:01:30;97443.03;;;18.31
20730;BMP280;10526;50.850;12.928;2022-11-15T12:06:06;97447.88;;;17.79
20730;BMP280;10526;50.850;12.928;2022-11-15T12:10:33;97447.81;;;17.31
20730;BMP280;10526;50.850;12.928;2022-11-15T12:15:10;97445.94;;;17.04
20730;BMP280;10526;50.850;12.928;2022-11-15T12:19:35;97440.72;;;16.91
20730;BMP280;10526;50.850;12.928;2022-11-15T12:24:12;97431.81;;;16.67
20730;BMP280;10526;50.850;12.928;2022-11-15T12:33:56;97410.63;;;16.23
20730;BMP280;10526;50.850;12.928;2022-11-15T12:39:02;97413.63;;;16.25
20730;BMP280;10526;50.850;12.928;2022-11-15T12:43:45;97410.63;;;16.14
20730;BMP280;10526;50.850;12.928;2022-11-15T12:57:49;97390.03;;;16.11
20730;BMP280;10526;50.850;12.928;2022-11-15T13:02:26;97388.53;;;16.10
20730;BMP280;10526;50.850;12.928;2022-11-15T13:07:00;97385.72;;;16.04
20730;BMP280;10526;50.850;12.928;2022-11-15T13:11:47;97380.91;;;15.99
20730;BMP280;10526;50.850;12.928;2022-11-15T13:16:10;97377.94;;;15.97
20730;BMP280;10526;50.850;12.928;2022-11-15T13:20:33;97383.72;;;15.96
20730;BMP280;10526;50.850;12.928;2022-11-15T13:24:55;97371.38;;;15.89
20730;BMP280;10526;50.850;12.928;2022-11-15T13:29:19;97384.66;;;15.93
20730;BMP280;10526;50.850;12.928;2022-11-15T13:33:41;97370.16;;;15.90
20730;BMP280;10526;50.850;12.928;2022-11-15T13:38:05;97364.03;;;15.90
20730;BMP280;10526;50.850;12.928;2022-11-15T13:42:28;97370.47;;;15.83
20730;BMP280;10526;50.850;12.928;2022-11-15T13:47:14;97364.03;;;15.71
20730;BMP280;10526;50.850;12.928;2022-11-15T13:51:53;97364.00;;;15.62
20730;BMP280;10526;50.850;12.928;2022-11-15T13:56:17;97358.19;;;15.55
20730;BMP280;10526;50.850;12.928;2022-11-15T14:00:42;97352.06;;;15.45
20730;BMP280;10526;50.850;12.928;2022-11-15T14:05:21;97352.31;;;15.38
20730;BMP280;10526;50.850;12.928;2022-11-15T14:09:44;97344.97;;;15.29
20730;BMP280;10526;50.850;12.928;2022-11-15T14:18:48;97328.09;;;15.10
20730;BMP280;10526;50.850;12.928;2022-11-15T14:23:27;97324.03;;;14.97
20730;BMP280;10526;50.850;12.928;2022-11-15T14:28:32;97329.78;;;14.86
20730;BMP280;10526;50.850;12.928;2022-11-15T14:32:59;97320.75;;;14.71
20730;BMP280;10526;50.850;12.928;2022-11-15T14:37:25;97323.94;;;14.56
20730;BMP280;10526;50.850;12.928;2022-11-15T14:41:47;97324.56;;;14.39
20730;BMP280;10526;50.850;12.928;2022-11-15T14:46:09;97318.03;;;14.18
20730;BMP280;10526;50.850;12.928;2022-11-15T14:50:32;97315.31;;;13.96
20730;BMP280;10526;50.850;12.928;2022-11-15T14:54:55;97307.44;;;13.80
20730;BMP280;10526;50.850;12.928;2022-11-15T14:59:19;97295.41;;;13.62
20730;BMP280;10526;50.850;12.928;2022-11-15T15:03:41;97289.44;;;13.45
20730;BMP280;10526;50.850;12.928;2022-11-15T15:08:04;97293.94;;;13.23
20730;BMP280;10526;50.850;12.928;2022-11-15T15:12:27;97285.59;;;12.96
20730;BMP280;10526;50.850;12.928;2022-11-15T15:16:49;97284.06;;;12.69
20730;BMP280;10526;50.850;12.928;2022-11-15T15:21:26;97280.25;;;12.41
20730;BMP280;10526;50.850;12.928;2022-11-15T15:25:57;97280.25;;;12.12
20730;BMP280;10526;50.850;12.928;2022-11-15T15:30:19;97274.16;;;11.83
20730;BMP280;10526;50.850;12.928;2022-11-15T15:34:41;97279.25;;;11.61
20730;BMP280;10526;50.850;12.928;2022-11-15T15:39:03;97272.91;;;11.38
20730;BMP280;10526;50.850;12.928;2022-11-15T15:43:25;97264.56;;;11.20
20730;BMP280;10526;50.850;12.928;2022-11-15T15:47:48;97269.44;;;11.05
20730;BMP280;10526;50.850;12.928;2022-11-15T15:52:11;97266.78;;;10.89
20730;BMP280;10526;50.850;12.928;2022-11-15T15:56:33;97263.00;;;10.66
20730;BMP280;10526;50.850;12.928;2022-11-15T16:00:55;97259.50;;;10.53
20730;BMP280;10526;50.850;12.928;2022-11-15T16:05:17;97258.53;;;10.44
20730;BMP280;10526;50.850;12.928;2022-11-15T16:09:40;97254.44;;;10.39
20730;BMP280;10526;50.850;12.928;2022-11-15T16:14:22;97248.91;;;10.30
20730;BMP280;10526;50.850;12.928;2022-11-15T16:18:44;97250.34;;;10.15
20730;BMP280;10526;50.850;12.928;2022-11-15T16:23:09;97241.47;;;9.98
20730;BMP280;10526;50.850;12.928;2022-11-15T16:27:31;97242.53;;;9.80
20730;BMP280;10526;50.850;12.928;2022-11-15T16:31:54;97226.03;;;9.69
20730;BMP280;10526;50.850;12.928;2022-11-15T16:36:26;97226.56;;;9.61
20730;BMP280;10526;50.850;12.928;2022-11-15T16:40:51;97221.66;;;9.55
20730;BMP280;10526;50.850;12.928;2022-11-15T16:45:13;97218.75;;;9.50
20730;BMP280;10526;50.850;12.928;2022-11-15T16:49:35;97234.84;;;9.39
20730;BMP280;10526;50.850;12.928;2022-11-15T16:58:29;97245.13;;;9.10
20730;BMP280;10526;50.850;12.928;2022-11-15T17:02:52;97245.25;;;8.99
20730;BMP280;10526;50.850;12.928;2022-11-15T17:07:14;97240.53;;;8.84
20730;BMP280;10526;50.850;12.928;2022-11-15T17:11:36;97246.41;;;8.68
20730;BMP280;10526;50.850;12.928;2022-11-15T17:16:10;97236.03;;;8.46
20730;BMP280;10526;50.850;12.928;2022-11-15T17:20:32;97222.91;;;8.32
20730;BMP280;10526;50.850;12.928;2022-11-15T17:24:54;97219.28;;;8.19
20730;BMP280;10526;50.850;12.928;2022-11-15T17:29:16;97216.03;;;8.01
20730;BMP280;10526;50.850;12.928;2022-11-15T17:33:39;97213.97;;;7.78
20730;BMP280;10526;50.850;12.928;2022-11-15T17:38:01;97217.13;;;7.62
20730;BMP280;10526;50.850;12.928;2022-11-15T17:42:23;97220.28;;;7.46
20730;BMP280;10526;50.850;12.928;2022-11-15T17:46:45;97212.00;;;7.33
20730;BMP280;10526;50.850;12.928;2022-11-15T17:51:11;97210.53;;;7.25
20730;BMP280;10526;50.850;12.928;2022-11-15T17:55:33;97202.72;;;7.11
20730;BMP280;10526;50.850;12.928;2022-11-15T17:59:55;97209.56;;;7.01
20730;BMP280;10526;50.850;12.928;2022-11-15T18:04:17;97202.41;;;6.95
20730;BMP280;10526;50.850;12.928;2022-11-15T18:08:40;97202.81;;;6.90
20730;BMP280;10526;50.850;12.928;2022-11-15T18:13:03;97206.25;;;6.79
20730;BMP280;10526;50.850;12.928;2022-11-15T18:17:25;97207.44;;;6.64
20730;BMP280;10526;50.850;12.928;2022-11-15T18:21:46;97209.41;;;6.53
20730;BMP280;10526;50.850;12.928;2022-11-15T18:26:18;97201.09;;;6.47
20730;BMP280;10526;50.850;12.928;2022-11-15T18:30:48;97201.09;;;6.44
20730;BMP280;10526;50.850;12.928;2022-11-15T18:35:10;97193.56;;;6.42
20730;BMP280;10526;50.850;12.928;2022-11-15T18:39:32;97198.88;;;6.31
20730;BMP280;10526;50.850;12.928;2022-11-15T18:43:56;97209.09;;;6.22
20730;BMP280;10526;50.850;12.928;2022-11-15T18:48:18;97194.00;;;6.12
20730;BMP280;10526;50.850;12.928;2022-11-15T18:52:40;97183.41;;;6.08
20730;BMP280;10526;50.850;12.928;2022-11-15T18:57:02;97179.28;;;6.07
20730;BMP280;10526;50.850;12.928;2022-11-15T19:01:36;97170.22;;;6.05
20730;BMP280;10526;50.850;12.928;2022-11-15T19:06:07;97174.38;;;6.06
20730;BMP280;10526;50.850;12.928;2022-11-15T19:10:28;97164.94;;;5.87
20730;BMP280;10526;50.850;12.928;2022-11-15T19:14:52;97166.09;;;5.75
20730;BMP280;10526;50.850;12.928;2022-11-15T19:19:17;97161.56;;;5.65
20730;BMP280;10526;50.850;12.928;2022-11-15T19:23:42;97164.97;;;5.59
20730;BMP280;10526;50.850;12.928;2022-11-15T19:28:04;97155.16;;;5.55
20730;BMP280;10526;50.850;12.928;2022-11-15T19:32:27;97154.41;;;5.51
20730;BMP280;10526;50.850;12.928;2022-11-15T19:36:49;97154.03;;;5.42
20730;BMP280;10526;50.850;12.928;2022-11-15T19:41:16;97149.09;;;5.37
20730;BMP280;10526;50.850;12.928;2022-11-15T19:45:38;97140.41;;;5.29
20730;BMP280;10526;50.850;12.928;2022-11-15T19:50:00;97136.28;;;5.21
20730;BMP280;10526;50.850;12.928;2022-11-15T19:54:22;97133.59;;;5.14
20730;BMP280;10526;50.850;12.928;2022-11-15T19:58:45;97138.16;;;5.10
20730;BMP280;10526;50.850;12.928;2022-11-15T20:03:09;97120.41;;;5.00
20730;BMP280;10526;50.850;12.928;2022-11-15T20:07:30;97124.94;;;4.92
20730;BMP280;10526;50.850;12.928;2022-11-15T20:11:53;97117.38;;;4.87
20730;BMP280;10526;50.850;12.928;2022-11-15T20:16:21;97120.38;;;4.82
20730;BMP280;10526;50.850;12.928;2022-11-15T20:20:43;97119.19;;;4.72
20730;BMP280;10526;50.850;12.928;2022-11-15T20:25:05;97124.06;;;4.63
20730;BMP280;10526;50.850;12.928;2022-11-15T20:29:27;97117.28;;;4.55
20730;BMP280;10526;50.850;12.928;2022-11-15T20:33:50;97107.81;;;4.47
20730;BMP280;10526;50.850;12.928;2022-11-15T20:38:12;97110.44;;;4.43
20730;BMP280;10526;50.850;12.928;2022-11-15T20:42:34;97107.41;;;4.41
20730;BMP280;10526;50.850;12.928;2022-11-15T20:46:56;97106.66;;;4.37
20730;BMP280;10526;50.850;12.928;2022-11-15T20:51:18;97093.84;;;4.36
20730;BMP280;10526;50.850;12.928;2022-11-15T20:55:43;97090.09;;;4.37
20730;BMP280;10526;50.850;12.928;2022-11-15T21:00:08;97094.63;;;4.43
20730;BMP280;10526;50.850;12.928;2022-11-15T21:04:30;97093.91;;;4.46
20730;BMP280;10526;50.850;12.928;2022-11-15T21:08:54;97093.91;;;4.46
20730;BMP280;10526;50.850;12.928;2022-11-15T21:13:35;97094.59;;;4.40
20730;BMP280;10526;50.850;12.928;2022-11-15T21:17:58;97082.16;;;4.30
20730;BMP280;10526;50.850;12.928;2022-11-15T21:22:19;97082.09;;;4.22
20730;BMP280;10526;50.850;12.928;2022-11-15T21:26:41;97071.19;;;4.20
20730;BMP280;10526;50.850;12.928;2022-11-15T21:31:03;97066.31;;;4.26
20730;BMP280;10526;50.850;12.928;2022-11-15T21:35:25;97066.34;;;4.30
20730;BMP280;10526;50.850;12.928;2022-11-15T21:39:47;97057.66;;;4.29
20730;BMP280;10526;50.850;12.928;2022-11-15T21:44:09;97050.09;;;4.20
20730;BMP280;10526;50.850;12.928;2022-11-15T21:48:34;97041.06;;;4.18
20730;BMP280;10526;50.850;12.928;2022-11-15T21:52:57;97030.56;;;4.25
20730;BMP280;10526;50.850;12.928;2022-11-15T21:57:19;97040.41;;;4.39
20730;BMP280;10526;50.850;12.928;2022-11-15T22:01:42;97039.28;;;4.47
20730;BMP280;10526;50.850;12.928;2022-11-15T22:06:22;97018.25;;;4.61
20730;BMP280;10526;50.850;12.928;2022-11-15T22:10:49;97013.00;;;4.75
20730;BMP280;10526;50.850;12.928;2022-11-15T22:15:11;97014.91;;;4.93
20730;BMP280;10526;50.850;12.928;2022-11-15T22:19:33;97013.75;;;5.04
20730;BMP280;10526;50.850;12.928;2022-11-15T22:23:55;97016.00;;;5.02
20730;BMP280;10526;50.850;12.928;2022-11-15T22:28:17;97011.50;;;4.92
20730;BMP280;10526;50.850;12.928;2022-11-15T22:32:39;97002.81;;;4.77
20730;BMP280;10526;50.850;12.928;2022-11-15T22:37:01;96996.00;;;4.62
20730;BMP280;10526;50.850;12.928;2022-11-15T22:41:42;96990.72;;;4.51
20730;BMP280;10526;50.850;12.928;2022-11-15T22:46:05;96983.94;;;4.47
20730;BMP280;10526;50.850;12.928;2022-11-15T22:50:27;96982.44;;;4.42
20730;BMP280;10526;50.850;12.928;2022-11-15T22:54:49;96963.59;;;4.37
20730;BMP280;10526;50.850;12.928;2022-11-15T22:59:11;96956.81;;;4.36
20730;BMP280;10526;50.850;12.928;2022-11-15T23:03:33;96955.31;;;4.31
20730;BMP280;10526;50.850;12.928;2022-11-15T23:07:55;96936.47;;;4.40
20730;BMP280;10526;50.850;12.928;2022-11-15T23:12:17;96945.16;;;4.37
20730;BMP280;10526;50.850;12.928;2022-11-15T23:16:58;96944.34;;;4.25
20730;BMP280;10526;50.850;12.928;2022-11-15T23:21:24;96945.06;;;4.08
20730;BMP280;10526;50.850;12.928;2022-11-15T23:26:05;96938.63;;;3.95
20730;BMP280;10526;50.850;12.928;2022-11-15T23:30:27;96931.84;;;3.87
20730;BMP280;10526;50.850;12.928;2022-11-15T23:35:08;96940.81;;;3.71
20730;BMP280;10526;50.850;12.928;2022-11-15T23:39:29;96929.81;;;3.55
20730;BMP280;10526;50.850;12.928;2022-11-15T23:43:51;96919.25;;;3.44
20730;BMP280;10526;50.850;12.928;2022-11-15T23:48:13;96911.34;;;3.44
20730;BMP280;10526;50.850;12.928;2022-11-15T23:52:35;96906.47;;;3.43
20730;BMP280;10526;50.850;12.928;2022-11-15T23:56:57;96911.28;;;3.37
